createdAt,value
2022-10-08T00:01:44.085Z,7.22
2022-10-08T00:04:13.710Z,7.13
2022-10-08T00:06:42.143Z,8.60
2022-10-08T00:09:11.843Z,8.27
2022-10-08T00:11:42.834Z,8.75
2022-10-08T00:14:11.344Z,9.70
2022-10-08T00:16:41.647Z,8.40
2022-10-08T00:19:13.415Z,9.13
2022-10-08T00:21:44.113Z,8.48
2022-10-08T00:24:16.266Z,7.50
2022-10-08T00:26:45.431Z,8.13
2022-10-08T00:29:17.004Z,7.90
2022-10-08T00:31:47.490Z,7.63
2022-10-08T00:34:17.726Z,7.05
2022-10-08T00:36:47.567Z,7.68
2022-10-08T00:39:20.461Z,7.20
2022-10-08T00:41:50.538Z,7.53
2022-10-08T00:44:58.858Z,7.93
2022-10-08T00:47:41.942Z,7.45
2022-10-08T00:50:21.667Z,7.30
2022-10-08T00:52:53.837Z,6.90
2022-10-08T00:55:27.758Z,6.72
2022-10-08T00:57:58.407Z,6.63
2022-10-08T01:00:28.187Z,6.63
2022-10-08T01:02:56.746Z,5.20
2022-10-08T01:05:34.035Z,5.60
2022-10-08T01:08:14.786Z,6.03
2022-10-08T01:10:52.763Z,5.40
2022-10-08T01:13:33.775Z,5.45
2022-10-08T01:16:10.784Z,5.70
2022-10-08T01:18:46.867Z,5.55
2022-10-08T01:21:19.824Z,5.50
2022-10-08T01:24:09.792Z,4.78
2022-10-08T01:26:52.628Z,5.35
2022-10-08T01:29:26.726Z,5.30
2022-10-08T01:31:59.791Z,5.45
2022-10-08T01:34:33.360Z,5.55
2022-10-08T01:37:05.312Z,5.45
2022-10-08T01:39:38.369Z,5.63
2022-10-08T01:42:10.936Z,5.53
2022-10-08T01:44:46.539Z,5.82
2022-10-08T01:47:21.671Z,5.00
2022-10-08T01:49:54.530Z,5.60
2022-10-08T01:52:28.767Z,4.70
2022-10-08T01:55:01.842Z,5.25
2022-10-08T01:57:32.378Z,5.07
2022-10-08T02:00:09.710Z,5.22
2022-10-08T02:02:38.548Z,5.13
2022-10-08T02:05:08.362Z,5.65
2022-10-08T02:07:39.720Z,5.47
2022-10-08T02:10:10.335Z,5.55
2022-10-08T02:12:40.327Z,5.65
2022-10-08T02:15:15.446Z,5.05
2022-10-08T02:17:57.029Z,4.88
2022-10-08T02:20:32.466Z,4.10
2022-10-08T02:23:05.487Z,4.88
2022-10-08T02:25:38.835Z,4.03
2022-10-08T02:28:15.955Z,3.10
2022-10-08T02:30:52.978Z,3.10
2022-10-08T02:33:26.848Z,3.63
2022-10-08T02:35:58.975Z,3.42
2022-10-08T02:38:33.685Z,3.42
2022-10-08T02:41:06.103Z,3.72
2022-10-08T02:43:38.059Z,3.20
2022-10-08T02:46:15.217Z,3.53
2022-10-08T02:48:49.530Z,3.55
2022-10-08T02:51:19.995Z,2.92
2022-10-08T02:53:49.559Z,3.50
2022-10-08T02:56:27.762Z,3.10
2022-10-08T02:58:57.325Z,2.92
2022-10-08T03:01:38.058Z,3.40
2022-10-08T03:04:11.427Z,3.40
2022-10-08T03:06:40.260Z,3.17
2022-10-08T03:09:13.087Z,3.60
2022-10-08T03:11:41.945Z,3.33
2022-10-08T03:14:14.216Z,3.70
2022-10-08T03:16:46.368Z,3.53
2022-10-08T03:19:17.383Z,3.42
2022-10-08T03:21:48.615Z,3.70
2022-10-08T03:24:17.176Z,3.20
2022-10-08T03:26:45.515Z,3.33
2022-10-08T03:29:14.304Z,3.80
2022-10-08T03:31:43.995Z,3.05
2022-10-08T03:34:12.437Z,3.30
2022-10-08T03:36:40.736Z,3.67
2022-10-08T03:39:10.407Z,3.55
2022-10-08T03:41:39.109Z,3.90
2022-10-08T03:44:09.475Z,3.47
2022-10-08T03:46:37.890Z,3.40
2022-10-08T03:49:08.022Z,3.97
2022-10-08T03:51:36.549Z,3.58
2022-10-08T03:54:05.035Z,3.70
2022-10-08T03:56:33.517Z,3.33
2022-10-08T03:59:03.877Z,3.90
2022-10-08T04:01:32.377Z,3.45
2022-10-08T04:04:01.232Z,3.90
2022-10-08T04:06:31.374Z,3.92
2022-10-08T04:09:01.671Z,3.47
2022-10-08T04:11:31.855Z,4.22
2022-10-08T04:14:02.010Z,3.90
2022-10-08T04:16:30.850Z,3.97
2022-10-08T04:18:59.482Z,3.85
2022-10-08T04:21:28.174Z,3.92
2022-10-08T04:23:58.215Z,4.00
2022-10-08T04:26:26.632Z,3.88
2022-10-08T04:28:55.069Z,3.72
2022-10-08T04:31:24.575Z,4.30
2022-10-08T04:33:53.828Z,4.07
2022-10-08T04:36:24.134Z,3.45
2022-10-08T04:38:53.018Z,3.50
2022-10-08T04:41:24.162Z,3.42
2022-10-08T04:43:54.795Z,3.30
2022-10-08T04:46:23.790Z,3.38
2022-10-08T04:48:53.943Z,3.40
2022-10-08T04:51:24.004Z,3.53
2022-10-08T04:53:53.044Z,2.50
2022-10-08T04:56:24.800Z,3.05
2022-10-08T04:58:55.261Z,3.33
2022-10-08T05:01:25.728Z,3.15
2022-10-08T05:03:55.947Z,3.00
2022-10-08T05:06:26.653Z,3.25
2022-10-08T05:08:55.664Z,3.00
2022-10-08T05:11:27.656Z,3.83
2022-10-08T05:13:57.955Z,3.10
2022-10-08T05:16:27.471Z,2.75
2022-10-08T05:18:56.197Z,2.80
2022-10-08T05:21:26.576Z,3.22
2022-10-08T05:23:59.227Z,3.00
2022-10-08T05:26:58.203Z,4.43
2022-10-08T05:29:20.000Z,3.40
2022-10-08T05:31:48.319Z,3.30
2022-10-08T05:34:17.107Z,2.78
2022-10-08T05:36:45.472Z,3.80
2022-10-08T05:39:13.929Z,3.30
2022-10-08T05:41:43.886Z,2.72
2022-10-08T05:44:14.720Z,5.20
2022-10-08T05:46:43.171Z,3.13
2022-10-08T05:49:19.610Z,3.65
2022-10-08T05:51:48.050Z,3.08
2022-10-08T05:54:17.027Z,2.67
2022-10-08T05:56:47.178Z,2.40
2022-10-08T05:59:18.845Z,2.65
2022-10-08T06:01:47.909Z,2.55
2022-10-08T06:04:17.430Z,3.30
2022-10-08T06:06:46.459Z,2.70
2022-10-08T06:09:16.838Z,2.95
2022-10-08T06:11:47.890Z,3.30
2022-10-08T06:14:19.364Z,3.22
2022-10-08T06:16:47.791Z,3.33
2022-10-08T06:19:16.969Z,2.85
2022-10-08T06:21:45.655Z,2.60
2022-10-08T06:24:14.850Z,3.13
2022-10-08T06:26:44.638Z,3.08
2022-10-08T06:29:16.647Z,2.40
2022-10-08T06:31:45.373Z,3.15
2022-10-08T06:34:13.699Z,2.63
2022-10-08T06:36:42.210Z,2.45
2022-10-08T06:39:14.089Z,2.22
2022-10-08T06:41:42.599Z,3.15
2022-10-08T06:44:14.923Z,3.10
2022-10-08T06:46:44.285Z,2.90
2022-10-08T06:49:13.667Z,2.78
2022-10-08T06:51:42.299Z,2.60
2022-10-08T06:54:11.428Z,2.78
2022-10-08T06:56:40.030Z,5.40
2022-10-08T06:59:09.947Z,3.50
2022-10-08T07:01:40.350Z,2.75
2022-10-08T07:04:09.269Z,2.60
2022-10-08T07:06:37.695Z,2.45
2022-10-08T07:09:07.803Z,2.90
2022-10-08T07:11:37.306Z,3.00
2022-10-08T07:14:05.860Z,2.67
2022-10-08T07:16:34.270Z,2.55
2022-10-08T07:19:04.616Z,2.53
2022-10-08T07:21:33.335Z,2.78
2022-10-08T07:24:03.107Z,2.95
2022-10-08T07:26:34.624Z,2.45
2022-10-08T07:29:06.240Z,2.63
2022-10-08T07:31:37.189Z,2.67
2022-10-08T07:34:09.054Z,3.10
2022-10-08T07:36:38.210Z,2.35
2022-10-08T07:39:08.728Z,2.08
2022-10-08T07:41:37.515Z,2.45
2022-10-08T07:44:07.710Z,2.67
2022-10-08T07:46:39.098Z,2.05
2022-10-08T07:49:08.946Z,2.30
2022-10-08T07:51:38.294Z,2.28
2022-10-08T07:54:08.868Z,2.25
2022-10-08T07:56:37.932Z,2.05
2022-10-08T07:59:07.535Z,1.95
2022-10-08T08:01:36.635Z,1.50
2022-10-08T08:04:07.597Z,2.17
2022-10-08T08:06:42.156Z,2.58
2022-10-08T08:09:11.314Z,2.15
2022-10-08T08:11:40.185Z,1.83
2022-10-08T08:14:09.349Z,1.58
2022-10-08T08:16:38.109Z,1.58
2022-10-08T08:19:06.623Z,2.08
2022-10-08T08:21:39.293Z,2.00
2022-10-08T08:24:09.249Z,1.80
2022-10-08T08:26:39.881Z,1.50
2022-10-08T08:29:11.665Z,1.60
2022-10-08T08:31:43.536Z,2.10
2022-10-08T08:34:15.675Z,1.67
2022-10-08T08:36:47.534Z,1.70
2022-10-08T08:39:18.213Z,1.45
2022-10-08T08:41:55.826Z,1.60
2022-10-08T08:44:26.315Z,1.45
2022-10-08T08:46:58.435Z,1.83
2022-10-08T08:49:33.959Z,1.98
2022-10-08T08:52:06.075Z,1.40
2022-10-08T08:54:34.639Z,1.30
2022-10-08T08:57:13.411Z,1.20
2022-10-08T08:59:48.064Z,1.00
2022-10-08T09:02:24.569Z,1.20
2022-10-08T09:04:57.861Z,1.00
2022-10-08T09:07:35.147Z,2.05
2022-10-08T09:10:09.563Z,1.25
2022-10-08T09:12:39.607Z,1.20
2022-10-08T09:15:18.824Z,1.13
2022-10-08T09:17:52.185Z,1.23
2022-10-08T09:20:25.947Z,1.67
2022-10-08T09:25:25.845Z,1.50
2022-10-08T09:27:57.006Z,1.20
2022-10-08T09:30:32.898Z,1.55
2022-10-08T09:33:04.679Z,1.20
2022-10-08T09:35:35.260Z,1.33
2022-10-08T09:38:06.358Z,1.85
2022-10-08T09:40:34.858Z,1.27
2022-10-08T09:43:20.987Z,1.33
2022-10-08T09:45:51.755Z,1.45
2022-10-08T09:48:25.216Z,1.10
2022-10-08T09:51:06.690Z,1.40
2022-10-08T09:53:42.827Z,1.00
2022-10-08T09:56:13.989Z,0.95
2022-10-08T09:58:52.898Z,0.90
2022-10-08T10:01:22.057Z,1.00
2022-10-08T10:03:52.898Z,1.13
2022-10-08T10:06:30.243Z,1.23
2022-10-08T10:09:04.390Z,1.00
2022-10-08T10:11:41.942Z,0.93
2022-10-08T10:14:20.954Z,1.10
2022-10-08T10:16:54.666Z,1.00
2022-10-08T10:21:58.130Z,1.02
2022-10-08T10:24:49.616Z,1.05
2022-10-08T10:27:26.193Z,1.13
2022-10-08T10:30:04.371Z,1.55
2022-10-08T10:32:39.898Z,1.13
2022-10-08T10:35:16.885Z,1.20
2022-10-08T10:37:51.182Z,1.63
2022-10-08T10:40:31.450Z,1.63
2022-10-08T10:43:19.537Z,1.40
2022-10-08T10:45:52.846Z,1.08
2022-10-08T10:48:21.278Z,10.80
2022-10-08T10:51:05.379Z,1.10
2022-10-08T10:53:44.466Z,1.20
2022-10-08T10:56:19.295Z,1.85
2022-10-08T10:59:18.385Z,1.30
2022-10-08T11:01:54.048Z,1.30
2022-10-08T11:04:40.633Z,2.03
2022-10-08T11:07:24.898Z,1.30
2022-10-08T11:10:00.086Z,1.13
2022-10-08T11:12:39.534Z,1.13
2022-10-08T11:15:19.547Z,1.27
2022-10-08T11:18:08.671Z,1.50
2022-10-08T11:20:50.003Z,2.05
2022-10-08T11:23:35.530Z,1.60
2022-10-08T11:26:21.880Z,1.48
2022-10-08T11:29:07.608Z,2.95
2022-10-08T11:31:42.959Z,1.10
2022-10-08T11:34:24.384Z,1.02
2022-10-08T11:37:03.095Z,1.30
2022-10-08T11:39:41.738Z,1.75
2022-10-08T11:42:16.579Z,1.30
2022-10-08T11:44:46.972Z,1.58
2022-10-08T11:47:53.232Z,1.30
2022-10-08T11:50:32.410Z,1.65
2022-10-08T11:53:14.462Z,1.35
2022-10-08T11:55:52.437Z,1.55
2022-10-08T11:58:28.167Z,1.33
2022-10-08T12:01:06.296Z,1.42
2022-10-08T12:03:37.528Z,0.98
2022-10-08T12:06:17.167Z,1.20
2022-10-08T12:08:54.543Z,1.15
2022-10-08T12:11:52.121Z,0.85
2022-10-08T12:14:35.147Z,1.23
2022-10-08T12:17:13.536Z,1.20
2022-10-08T12:20:02.600Z,1.52
2022-10-08T12:23:00.541Z,1.38
2022-10-08T12:25:44.456Z,1.48
2022-10-08T12:28:50.749Z,1.10
2022-10-08T12:31:31.610Z,1.48
2022-10-08T12:34:14.248Z,1.00
2022-10-08T12:36:53.681Z,1.13
2022-10-08T12:39:35.475Z,0.88
2022-10-08T12:42:15.050Z,0.80
2022-10-08T12:44:57.050Z,0.77
2022-10-08T12:47:35.829Z,1.95
2022-10-08T12:50:19.281Z,0.90
2022-10-08T12:52:48.182Z,0.75
2022-10-08T12:55:19.155Z,0.70
2022-10-08T12:57:50.384Z,0.80
2022-10-08T13:00:23.980Z,0.70
2022-10-08T13:03:02.702Z,0.80
2022-10-08T13:05:35.206Z,0.88
2022-10-08T13:08:30.258Z,0.85
2022-10-08T13:11:00.234Z,1.20
2022-10-08T13:13:42.915Z,1.00
2022-10-08T13:16:13.494Z,1.10
2022-10-08T13:18:44.179Z,0.95
2022-10-08T13:21:38.571Z,1.20
2022-10-08T13:24:31.828Z,1.13
2022-10-08T13:27:00.211Z,0.90
2022-10-08T13:29:35.003Z,1.10
2022-10-08T13:32:07.228Z,1.30
2022-10-08T13:34:46.577Z,1.08
2022-10-08T13:37:26.086Z,1.00
2022-10-08T13:39:56.588Z,1.20
2022-10-08T13:42:27.379Z,1.08
2022-10-08T13:44:55.827Z,1.52
2022-10-08T13:47:24.466Z,1.20
2022-10-08T13:49:55.749Z,1.80
2022-10-08T13:52:26.905Z,1.40
2022-10-08T13:55:01.142Z,2.00
2022-10-08T13:57:29.523Z,1.67
2022-10-08T13:59:57.930Z,1.42
2022-10-08T14:02:28.148Z,1.63
2022-10-08T14:04:56.522Z,1.50
2022-10-08T14:07:29.564Z,1.25
2022-10-08T14:10:01.009Z,2.10
2022-10-08T14:12:32.708Z,1.60
2022-10-08T14:15:02.126Z,1.60
2022-10-08T14:17:30.410Z,1.50
2022-10-08T14:19:59.286Z,1.65
2022-10-08T14:22:29.044Z,1.77
2022-10-08T14:24:57.427Z,1.65
2022-10-08T14:27:25.893Z,1.35
2022-10-08T14:29:54.211Z,1.67
2022-10-08T14:32:22.515Z,1.90
2022-10-08T14:34:50.968Z,1.83
2022-10-08T14:37:19.370Z,1.77
2022-10-08T14:39:49.392Z,2.00
2022-10-08T14:42:18.339Z,1.70
2022-10-08T14:44:48.161Z,2.17
2022-10-08T14:47:17.446Z,2.15
2022-10-08T14:49:46.038Z,1.63
2022-10-08T14:52:14.940Z,1.75
2022-10-08T14:54:43.394Z,1.48
2022-10-08T14:57:13.178Z,1.65
2022-10-08T14:59:41.435Z,1.63
2022-10-08T15:02:11.339Z,1.50
2022-10-08T15:04:39.823Z,1.90
2022-10-08T15:07:08.091Z,1.85
2022-10-08T15:09:37.410Z,1.60
2022-10-08T15:12:06.028Z,1.90
2022-10-08T15:14:38.397Z,1.70
2022-10-08T15:17:10.696Z,4.57
2022-10-08T15:19:39.365Z,2.13
2022-10-08T15:22:08.104Z,2.00
2022-10-08T15:24:36.458Z,1.80
2022-10-08T15:27:04.874Z,2.00
2022-10-08T15:29:33.194Z,2.00
2022-10-08T15:32:03.563Z,2.00
2022-10-08T15:34:32.478Z,1.88
2022-10-08T15:37:00.796Z,2.15
2022-10-08T15:39:35.533Z,3.90
2022-10-08T15:42:04.835Z,3.67
2022-10-08T15:44:33.506Z,3.38
2022-10-08T15:47:06.323Z,2.22
2022-10-08T15:49:37.087Z,3.30
2022-10-08T15:52:07.022Z,2.45
2022-10-08T15:54:36.794Z,3.03
2022-10-08T15:57:05.225Z,5.07
2022-10-08T15:59:34.241Z,3.13
2022-10-08T16:02:04.165Z,2.55
2022-10-08T16:04:32.602Z,2.92
2022-10-08T16:07:01.678Z,2.92
2022-10-08T16:09:30.406Z,7.70
2022-10-08T16:11:59.006Z,6.65
2022-10-08T16:14:28.244Z,3.30
2022-10-08T16:16:56.806Z,3.75
2022-10-08T16:19:28.208Z,2.50
2022-10-08T16:21:58.139Z,2.70
2022-10-08T16:24:27.198Z,2.80
2022-10-08T16:26:55.674Z,3.00
2022-10-08T16:29:23.944Z,5.50
2022-10-08T16:31:52.392Z,2.97
2022-10-08T16:34:22.864Z,2.95
2022-10-08T16:36:53.473Z,3.22
2022-10-08T16:39:24.509Z,17.92
2022-10-08T16:41:53.022Z,3.15
2022-10-08T16:44:22.726Z,2.58
2022-10-08T16:46:52.812Z,3.00
2022-10-08T16:49:25.465Z,7.15
2022-10-08T16:51:57.635Z,5.82
2022-10-08T16:54:26.500Z,7.25
2022-10-08T16:56:55.183Z,4.30
2022-10-08T16:59:25.844Z,4.10
2022-10-08T17:01:56.414Z,4.03
2022-10-08T17:04:28.020Z,2.85
2022-10-08T17:06:58.377Z,3.42
2022-10-08T17:09:26.697Z,10.57
2022-10-08T17:11:55.247Z,3.28
2022-10-08T17:14:23.791Z,4.38
2022-10-08T17:16:52.401Z,6.05
2022-10-08T17:19:21.827Z,3.72
2022-10-08T17:21:50.380Z,4.25
2022-10-08T17:24:20.335Z,9.02
2022-10-08T17:26:49.800Z,4.07
2022-10-08T17:29:18.591Z,4.35
2022-10-08T17:31:47.010Z,3.72
2022-10-08T17:34:15.440Z,3.97
2022-10-08T17:36:44.501Z,3.55
2022-10-08T17:39:15.621Z,4.95
2022-10-08T17:41:45.748Z,4.07
2022-10-08T17:44:14.709Z,3.25
2022-10-08T17:46:46.444Z,2.72
2022-10-08T17:49:15.772Z,3.05
2022-10-08T17:51:44.937Z,3.13
2022-10-08T17:54:16.307Z,3.00
2022-10-08T17:56:46.672Z,2.63
2022-10-08T17:59:15.901Z,2.90
2022-10-08T18:01:45.958Z,2.85
2022-10-08T18:04:17.017Z,8.30
2022-10-08T18:06:47.365Z,4.40
2022-10-08T18:09:18.534Z,3.60
2022-10-08T18:11:51.395Z,3.35
2022-10-08T18:14:19.975Z,3.47
2022-10-08T18:16:48.969Z,2.97
2022-10-08T18:19:17.811Z,2.53
2022-10-08T18:21:46.949Z,2.63
2022-10-08T18:24:15.895Z,2.03
2022-10-08T18:26:47.510Z,2.15
2022-10-08T18:29:18.756Z,2.60
2022-10-08T18:31:47.940Z,3.05
2022-10-08T18:34:18.383Z,2.78
2022-10-08T18:36:48.470Z,2.30
2022-10-08T18:39:26.014Z,2.42
2022-10-08T18:41:56.835Z,1.95
2022-10-08T18:44:28.464Z,2.30
2022-10-08T18:46:59.678Z,2.15
2022-10-08T18:49:34.036Z,2.40
2022-10-08T18:52:04.216Z,2.45
2022-10-08T18:54:32.780Z,3.22
2022-10-08T18:57:02.524Z,3.63
2022-10-08T18:59:35.506Z,3.83
2022-10-08T19:02:03.989Z,3.58
2022-10-08T19:04:32.695Z,3.78
2022-10-08T19:07:01.696Z,4.10
2022-10-08T19:09:30.481Z,5.22
2022-10-08T19:11:58.759Z,4.50
2022-10-08T19:14:28.418Z,3.50
2022-10-08T19:16:59.898Z,3.20
2022-10-08T19:19:28.808Z,2.85
2022-10-08T19:22:02.890Z,3.00
2022-10-08T19:24:31.369Z,2.17
2022-10-08T19:27:00.236Z,2.60
2022-10-08T19:29:33.459Z,2.67
2022-10-08T19:32:03.651Z,2.58
2022-10-08T19:34:33.572Z,2.80
2022-10-08T19:37:02.230Z,2.90
2022-10-08T19:39:31.958Z,3.33
2022-10-08T19:42:01.447Z,3.75
2022-10-08T19:44:31.088Z,3.83
2022-10-08T19:47:00.650Z,2.67
2022-10-08T19:49:32.054Z,2.28
2022-10-08T19:52:01.871Z,2.20
2022-10-08T19:54:31.783Z,2.30
2022-10-08T19:57:01.287Z,2.25
2022-10-08T19:59:31.395Z,2.70
2022-10-08T20:02:01.460Z,2.10
2022-10-08T20:04:34.626Z,2.03
2022-10-08T20:07:05.280Z,1.88
2022-10-08T20:09:36.862Z,1.90
2022-10-08T20:12:07.897Z,1.80
2022-10-08T20:14:37.791Z,1.45
2022-10-08T20:17:06.559Z,1.48
2022-10-08T20:19:37.948Z,1.40
2022-10-08T20:22:11.646Z,1.40
2022-10-08T20:24:41.844Z,1.40
2022-10-08T20:27:12.233Z,1.42
2022-10-08T20:29:42.144Z,1.30
2022-10-08T20:32:12.588Z,1.50
2022-10-08T20:34:44.010Z,1.38
2022-10-08T20:37:13.682Z,1.17
2022-10-08T20:39:43.398Z,1.23
2022-10-08T20:42:11.834Z,1.50
2022-10-08T20:44:40.914Z,1.23
2022-10-08T20:47:09.288Z,1.50
2022-10-08T20:49:37.851Z,1.50
2022-10-08T20:52:08.208Z,1.27
2022-10-08T20:54:36.732Z,1.20
2022-10-08T20:57:05.199Z,1.05
2022-10-08T20:59:34.755Z,0.75
2022-10-08T21:02:04.414Z,1.23
2022-10-08T21:04:33.071Z,1.10
2022-10-08T21:07:01.427Z,1.20
2022-10-08T21:09:31.325Z,1.10
2022-10-08T21:11:59.674Z,1.10
2022-10-08T21:14:28.110Z,2.45
2022-10-08T21:16:56.522Z,1.50
2022-10-08T21:19:26.309Z,1.20
2022-10-08T21:21:55.070Z,1.23
2022-10-08T21:24:26.007Z,1.73
2022-10-08T21:26:56.683Z,1.65
2022-10-08T21:29:25.011Z,1.50
2022-10-08T21:31:54.037Z,1.60
2022-10-08T21:34:22.423Z,6.05
2022-10-08T21:36:51.120Z,2.05
2022-10-08T21:39:19.894Z,1.20
2022-10-08T21:41:48.621Z,1.30
2022-10-08T21:44:18.363Z,1.08
2022-10-08T21:46:46.968Z,1.23
2022-10-08T21:49:17.608Z,1.80
2022-10-08T21:51:46.244Z,1.83
2022-10-08T21:54:15.047Z,1.95
2022-10-08T21:56:44.000Z,2.05
2022-10-08T21:59:13.967Z,1.63
2022-10-08T22:01:45.306Z,1.85
2022-10-08T22:04:16.557Z,1.42
2022-10-08T22:06:47.454Z,1.52
2022-10-08T22:09:17.823Z,1.50
2022-10-08T22:11:46.242Z,1.48
2022-10-08T22:14:14.922Z,1.65
2022-10-08T22:16:45.544Z,1.40
2022-10-08T22:19:14.556Z,2.30
2022-10-08T22:21:43.310Z,1.63
2022-10-08T22:24:12.719Z,2.25
2022-10-08T22:26:43.067Z,2.10
2022-10-08T22:29:11.812Z,3.03
2022-10-08T22:31:40.738Z,3.42
2022-10-08T22:34:10.759Z,3.60
2022-10-08T22:36:41.678Z,3.80
2022-10-08T22:39:10.580Z,3.67
2022-10-08T22:41:39.284Z,3.03
2022-10-08T22:44:07.806Z,2.72
2022-10-08T22:46:38.216Z,2.53
2022-10-08T22:49:08.989Z,2.65
2022-10-08T22:51:39.470Z,2.67
2022-10-08T22:54:10.619Z,2.45
2022-10-08T22:56:38.934Z,2.35
2022-10-08T22:59:07.405Z,1.90
2022-10-08T23:01:35.751Z,1.77
2022-10-08T23:04:04.830Z,1.77
2022-10-08T23:06:37.283Z,2.15
2022-10-08T23:09:08.823Z,3.30
2022-10-08T23:11:37.339Z,3.25
2022-10-08T23:14:06.444Z,2.90
2022-10-08T23:16:36.127Z,2.30
2022-10-08T23:19:06.489Z,3.08
2022-10-08T23:21:35.767Z,3.20
2022-10-08T23:24:04.659Z,3.33
2022-10-08T23:26:34.794Z,3.45
2022-10-08T23:29:03.965Z,3.00
2022-10-08T23:31:33.660Z,3.10
2022-10-08T23:34:02.686Z,3.00
2022-10-08T23:36:33.401Z,3.72
2022-10-08T23:39:02.390Z,3.17
2022-10-08T23:41:31.116Z,4.50
2022-10-08T23:44:01.605Z,4.53
2022-10-08T23:46:31.689Z,4.88
2022-10-08T23:49:00.845Z,3.80
2022-10-08T23:51:31.827Z,5.05
2022-10-08T23:54:01.253Z,4.35
2022-10-08T23:56:30.579Z,4.00
2022-10-08T23:59:01.022Z,6.72
